createdAt,value
2018-05-11T00:00:02.387Z,21.6
2018-05-11T00:00:52.484Z,21.6
2018-05-11T00:01:42.283Z,21.6
2018-05-11T00:02:32.336Z,21.6
2018-05-11T00:03:22.935Z,21.6
2018-05-11T00:04:12.997Z,21.6
2018-05-11T00:05:02.835Z,21.6
2018-05-11T00:05:53.153Z,21.6
2018-05-11T00:06:42.657Z,21.6
2018-05-11T00:07:32.992Z,21.6
2018-05-11T00:08:23.367Z,21.6
2018-05-11T00:09:12.281Z,21.6
2018-05-11T00:10:03.157Z,21.6
2018-05-11T00:10:53.413Z,21.6
2018-05-11T00:11:43.566Z,21.6
2018-05-11T00:12:33.083Z,21.6
2018-05-11T00:13:23.450Z,21.6
2018-05-11T00:14:13.485Z,21.6
2018-05-11T00:15:03.070Z,21.6
2018-05-11T00:15:53.627Z,21.6
2018-05-11T00:16:43.668Z,21.6
2018-05-11T00:17:33.726Z,21.6
2018-05-11T00:18:23.546Z,21.6
2018-05-11T00:19:13.898Z,21.6
2018-05-11T00:20:03.942Z,21.6
2018-05-11T00:20:53.445Z,21.6
2018-05-11T00:21:44.067Z,21.6
2018-05-11T00:22:34.159Z,21.6
2018-05-11T00:23:24.678Z,21.6
2018-05-11T00:24:13.694Z,21.6
2018-05-11T00:25:04.399Z,21.6
2018-05-11T00:25:53.565Z,21.6
2018-05-11T00:26:44.726Z,21.6
2018-05-11T00:27:33.992Z,21.6
2018-05-11T00:28:24.559Z,21.6
2018-05-11T00:29:14.646Z,21.6
2018-05-11T00:30:04.716Z,21.6
2018-05-11T00:30:55.066Z,21.6
2018-05-11T00:31:45.117Z,21.6
2018-05-11T00:32:35.022Z,21.6
2018-05-11T00:33:25.032Z,21.7
2018-05-11T00:34:15.307Z,21.6
2018-05-11T00:35:05.086Z,21.6
2018-05-11T00:35:54.865Z,21.6
2018-05-11T00:36:45.214Z,21.6
2018-05-11T00:37:35.009Z,21.6
2018-05-11T00:38:24.568Z,21.6
2018-05-11T00:39:15.430Z,21.6
2018-05-11T00:40:05.828Z,21.6
2018-05-11T00:40:55.520Z,21.6
2018-05-11T00:41:44.751Z,21.6
2018-05-11T00:42:35.385Z,21.6
2018-05-11T00:43:25.448Z,21.7
2018-05-11T00:44:15.248Z,21.7
2018-05-11T00:45:05.539Z,21.6
2018-05-11T00:45:55.651Z,21.6
2018-05-11T00:46:45.994Z,21.6
2018-05-11T00:47:36.009Z,21.6
2018-05-11T00:48:26.073Z,21.7
2018-05-11T00:49:16.505Z,21.7
2018-05-11T00:50:06.023Z,21.6
2018-05-11T00:50:56.755Z,21.6
2018-05-11T00:51:45.575Z,21.6
2018-05-11T00:52:36.151Z,21.7
2018-05-11T00:53:26.772Z,21.6
2018-05-11T00:54:16.512Z,21.6
2018-05-11T00:55:06.623Z,21.6
2018-05-11T00:55:55.599Z,21.6
2018-05-11T00:56:46.729Z,21.7
2018-05-11T00:57:37.057Z,21.6
2018-05-11T00:58:26.842Z,21.6
2018-05-11T00:59:16.959Z,21.6
2018-05-11T01:00:06.966Z,21.6
2018-05-11T01:00:57.081Z,21.6
2018-05-11T01:01:47.118Z,21.6
2018-05-11T01:02:36.998Z,21.6
2018-05-11T01:03:26.432Z,21.6
2018-05-11T01:04:16.745Z,21.7
2018-05-11T01:05:06.634Z,21.6
2018-05-11T01:05:57.214Z,21.6
2018-05-11T01:06:47.537Z,21.6
2018-05-11T01:07:37.661Z,21.6
2018-05-11T01:08:25.821Z,21.6
2018-05-11T01:09:16.150Z,21.6
2018-05-11T01:10:06.675Z,21.6
2018-05-11T01:10:56.839Z,21.6
2018-05-11T01:11:46.621Z,21.7
2018-05-11T01:12:36.604Z,21.6
2018-05-11T01:13:26.698Z,21.6
2018-05-11T01:14:17.314Z,21.7
2018-05-11T01:15:07.586Z,21.7
2018-05-11T01:15:57.182Z,21.6
2018-05-11T01:16:47.327Z,21.6
2018-05-11T01:17:38.562Z,21.6
2018-05-11T01:18:28.350Z,21.6
2018-05-11T01:19:18.409Z,21.6
2018-05-11T01:20:08.757Z,21.6
2018-05-11T01:20:57.975Z,21.6
2018-05-11T01:21:48.877Z,21.6
2018-05-11T01:22:38.689Z,21.6
2018-05-11T01:23:28.749Z,21.6
2018-05-11T01:24:18.235Z,21.7
2018-05-11T01:25:08.875Z,21.6
2018-05-11T01:25:59.258Z,21.6
2018-05-11T01:26:49.005Z,21.6
2018-05-11T01:27:39.097Z,21.7
2018-05-11T01:28:29.455Z,21.6
2018-05-11T01:29:19.502Z,21.7
2018-05-11T01:30:09.278Z,21.7
2018-05-11T01:30:59.055Z,21.7
2018-05-11T01:31:49.398Z,21.7
2018-05-11T01:32:39.714Z,21.6
2018-05-11T01:33:29.039Z,21.6
2018-05-11T01:34:19.618Z,21.7
2018-05-11T01:35:09.634Z,21.7
2018-05-11T01:35:59.138Z,21.7
2018-05-11T01:36:50.104Z,21.6
2018-05-11T01:37:39.650Z,21.7
2018-05-11T01:38:29.872Z,21.6
2018-05-11T01:39:20.230Z,21.6
2018-05-11T01:40:09.172Z,21.7
2018-05-11T01:40:59.834Z,21.6
2018-05-11T01:41:49.631Z,21.6
2018-05-11T01:42:40.335Z,21.6
2018-05-11T01:43:30.308Z,21.7
2018-05-11T01:44:19.540Z,21.7
2018-05-11T01:45:10.136Z,21.6
2018-05-11T01:46:00.465Z,21.7
2018-05-11T01:46:49.687Z,21.6
2018-05-11T01:47:40.069Z,21.6
2018-05-11T01:48:30.676Z,21.6
2018-05-11T01:49:20.166Z,21.6
2018-05-11T01:50:10.818Z,21.7
2018-05-11T01:51:00.884Z,21.6
2018-05-11T01:51:51.157Z,21.6
2018-05-11T01:52:40.695Z,21.7
2018-05-11T01:53:30.784Z,21.6
2018-05-11T01:54:19.762Z,21.6
2018-05-11T01:55:10.924Z,21.6
2018-05-11T01:56:00.678Z,21.6
2018-05-11T01:56:50.727Z,21.7
2018-05-11T01:57:40.599Z,21.6
2018-05-11T01:58:31.473Z,21.6
2018-05-11T01:59:21.761Z,21.6
2018-05-11T02:00:11.289Z,21.7
2018-05-11T02:01:01.449Z,21.7
2018-05-11T02:01:51.480Z,21.6
2018-05-11T02:02:41.709Z,21.7
2018-05-11T02:03:32.105Z,21.6
2018-05-11T02:04:21.078Z,21.6
2018-05-11T02:05:11.693Z,21.7
2018-05-11T02:06:00.981Z,21.7
2018-05-11T02:06:51.538Z,21.7
2018-05-11T02:07:41.907Z,21.7
2018-05-11T02:08:31.662Z,21.7
2018-05-11T02:09:21.677Z,21.6
2018-05-11T02:10:12.071Z,21.6
2018-05-11T02:11:02.653Z,21.7
2018-05-11T02:11:51.937Z,21.6
2018-05-11T02:12:42.188Z,21.6
2018-05-11T02:13:32.036Z,21.7
2018-05-11T02:14:22.912Z,21.7
2018-05-11T02:15:11.298Z,21.7
2018-05-11T02:16:03.063Z,21.6
2018-05-11T02:16:52.217Z,21.7
2018-05-11T02:17:42.044Z,21.6
2018-05-11T02:18:32.984Z,21.6
2018-05-11T02:19:22.434Z,21.6
2018-05-11T02:20:13.320Z,21.6
2018-05-11T02:21:02.829Z,21.7
2018-05-11T02:21:52.900Z,21.7
2018-05-11T02:22:43.072Z,21.7
2018-05-11T02:23:33.338Z,21.7
2018-05-11T02:24:23.084Z,21.6
2018-05-11T02:25:13.421Z,21.6
2018-05-11T02:26:03.570Z,21.7
2018-05-11T02:26:52.718Z,21.6
2018-05-11T02:27:43.119Z,21.6
2018-05-11T02:28:33.949Z,21.6
2018-05-11T02:29:23.474Z,21.7
2018-05-11T02:30:13.269Z,21.6
2018-05-11T02:31:03.932Z,21.6
2018-05-11T02:31:53.985Z,21.6
2018-05-11T02:32:43.736Z,21.7
2018-05-11T02:33:34.090Z,21.6
2018-05-11T02:34:24.521Z,21.7
2018-05-11T02:35:14.271Z,21.6
2018-05-11T02:36:04.036Z,21.7
2018-05-11T02:36:53.899Z,21.6
2018-05-11T02:37:44.432Z,21.6
2018-05-11T02:38:34.841Z,21.6
2018-05-11T02:39:24.292Z,21.7
2018-05-11T02:40:14.598Z,21.6
2018-05-11T02:41:04.408Z,21.7
2018-05-11T02:41:54.735Z,21.7
2018-05-11T02:42:44.357Z,21.6
2018-05-11T02:43:34.946Z,21.7
2018-05-11T02:44:25.037Z,21.6
2018-05-11T02:45:14.412Z,21.6
2018-05-11T02:46:05.335Z,21.6
2018-05-11T02:46:54.835Z,21.6
2018-05-11T02:47:44.908Z,21.7
2018-05-11T02:48:35.257Z,21.6
2018-05-11T02:49:25.311Z,21.6
2018-05-11T02:50:15.669Z,21.6
2018-05-11T02:51:05.540Z,21.6
2018-05-11T02:51:55.160Z,21.6
2018-05-11T02:52:45.438Z,21.6
2018-05-11T02:53:35.308Z,21.6
2018-05-11T02:54:25.736Z,21.7
2018-05-11T02:55:15.541Z,21.7
2018-05-11T02:56:05.548Z,21.6
2018-05-11T02:56:56.177Z,21.7
2018-05-11T02:57:45.941Z,21.6
2018-05-11T02:58:35.441Z,21.6
2018-05-11T02:59:25.757Z,21.6
2018-05-11T03:00:15.571Z,21.6
2018-05-11T03:01:05.610Z,21.6
2018-05-11T03:01:55.725Z,21.6
2018-05-11T03:02:46.280Z,21.6
2018-05-11T03:03:36.450Z,21.6
2018-05-11T03:04:25.894Z,21.6
2018-05-11T03:05:15.939Z,21.6
2018-05-11T03:06:06.839Z,21.7
2018-05-11T03:06:56.106Z,21.6
2018-05-11T03:07:46.972Z,21.6
2018-05-11T03:08:36.769Z,21.6
2018-05-11T03:09:26.235Z,21.6
2018-05-11T03:10:16.109Z,21.6
2018-05-11T03:11:06.121Z,21.6
2018-05-11T03:11:56.462Z,21.6
2018-05-11T03:12:46.509Z,21.6
2018-05-11T03:13:37.157Z,21.6
2018-05-11T03:14:27.230Z,21.6
2018-05-11T03:15:16.949Z,21.6
2018-05-11T03:16:06.786Z,21.6
2018-05-11T03:16:56.781Z,21.6
2018-05-11T03:17:47.673Z,21.6
2018-05-11T03:18:39.587Z,21.6
2018-05-11T03:19:27.944Z,21.6
2018-05-11T03:20:17.674Z,21.6
2018-05-11T03:21:07.400Z,21.6
2018-05-11T03:21:57.476Z,21.6
2018-05-11T03:22:47.536Z,21.6
2018-05-11T03:23:37.295Z,21.6
2018-05-11T03:24:28.207Z,21.6
2018-05-11T03:25:18.199Z,21.6
2018-05-11T03:26:07.583Z,21.6
2018-05-11T03:26:58.115Z,21.6
2018-05-11T03:27:47.882Z,21.6
2018-05-11T03:28:37.952Z,21.6
2018-05-11T03:29:28.068Z,21.6
2018-05-11T03:31:17.755Z,21.6
2018-05-11T03:32:07.285Z,21.6
2018-05-11T03:32:57.320Z,21.6
2018-05-11T03:33:46.802Z,21.6
2018-05-11T03:34:37.449Z,21.6
2018-05-11T03:35:27.802Z,21.6
2018-05-11T03:36:17.571Z,21.6
2018-05-11T03:37:07.936Z,21.6
2018-05-11T03:37:57.662Z,21.6
2018-05-11T03:38:47.732Z,21.6
2018-05-11T03:39:37.258Z,21.6
2018-05-11T03:40:28.128Z,21.6
2018-05-11T03:41:18.216Z,21.6
2018-05-11T03:42:07.474Z,21.6
2018-05-11T03:42:58.346Z,21.6
2018-05-11T03:43:48.424Z,21.6
2018-05-11T03:44:37.402Z,21.5
2018-05-11T03:45:27.721Z,21.5
2018-05-11T03:46:18.310Z,21.6
2018-05-11T03:47:08.142Z,21.5
2018-05-11T03:47:58.304Z,21.5
2018-05-11T03:48:48.235Z,21.5
2018-05-11T03:49:38.137Z,21.6
2018-05-11T03:50:27.581Z,21.5
2018-05-11T03:51:17.895Z,21.5
2018-05-11T03:52:08.325Z,21.5
2018-05-11T03:52:58.065Z,21.5
2018-05-11T03:53:48.110Z,21.5
2018-05-11T03:54:37.873Z,21.5
2018-05-11T03:55:28.518Z,21.5
2018-05-11T03:56:18.525Z,21.5
2018-05-11T03:57:08.353Z,21.5
2018-05-11T03:57:58.385Z,21.5
2018-05-11T03:58:49.089Z,21.5
2018-05-11T03:59:38.826Z,21.5
2018-05-11T04:00:29.634Z,21.5
2018-05-11T04:01:19.518Z,21.4
2018-05-11T04:02:09.349Z,21.4
2018-05-11T04:02:58.996Z,21.5
2018-05-11T04:03:49.630Z,21.4
2018-05-11T04:04:38.873Z,21.4
2018-05-11T04:05:30.037Z,21.5
2018-05-11T04:06:19.878Z,21.4
2018-05-11T04:07:10.152Z,21.4
2018-05-11T04:07:59.645Z,21.4
2018-05-11T04:08:50.281Z,21.4
2018-05-11T04:09:40.061Z,21.4
2018-05-11T04:10:30.215Z,21.4
2018-05-11T04:11:20.187Z,21.4
2018-05-11T04:12:10.267Z,21.4
2018-05-11T04:13:00.307Z,21.4
2018-05-11T04:13:50.137Z,21.4
2018-05-11T04:14:40.485Z,21.4
2018-05-11T04:15:30.523Z,21.4
2018-05-11T04:16:20.575Z,21.4
2018-05-11T04:17:10.146Z,21.4
2018-05-11T04:18:01.040Z,21.4
2018-05-11T04:18:50.468Z,21.4
2018-05-11T04:19:40.852Z,21.4
2018-05-11T04:20:31.223Z,21.4
2018-05-11T04:21:20.725Z,21.4
2018-05-11T04:22:11.311Z,21.4
2018-05-11T04:23:00.623Z,21.4
2018-05-11T04:23:50.917Z,21.4
2018-05-11T04:24:41.604Z,21.4
2018-05-11T04:25:31.316Z,21.4
2018-05-11T04:26:21.398Z,21.4
2018-05-11T04:27:11.418Z,21.4
2018-05-11T04:28:01.140Z,21.4
2018-05-11T04:28:51.539Z,21.3
2018-05-11T04:29:41.053Z,21.4
2018-05-11T04:30:31.149Z,21.4
2018-05-11T04:31:21.714Z,21.4
2018-05-11T04:32:11.836Z,21.4
2018-05-11T04:33:02.122Z,21.3
2018-05-11T04:33:51.688Z,21.4
2018-05-11T04:34:42.001Z,21.4
2018-05-11T04:35:31.497Z,21.4
2018-05-11T04:36:22.155Z,21.3
2018-05-11T04:37:12.552Z,21.3
2018-05-11T04:38:02.063Z,21.3
2018-05-11T04:38:51.613Z,21.4
2018-05-11T04:39:41.950Z,21.3
2018-05-11T04:40:31.776Z,21.3
2018-05-11T04:41:21.483Z,21.3
2018-05-11T04:42:11.884Z,21.3
2018-05-11T04:43:01.647Z,21.3
2018-05-11T04:43:51.679Z,21.3
2018-05-11T04:44:41.960Z,21.3
2018-05-11T04:45:32.129Z,21.3
2018-05-11T04:46:22.686Z,21.3
2018-05-11T04:47:13.204Z,21.3
2018-05-11T04:48:02.717Z,21.3
2018-05-11T04:48:53.433Z,21.3
2018-05-11T04:49:43.358Z,21.3
2018-05-11T04:50:33.231Z,21.3
2018-05-11T04:51:23.256Z,21.3
2018-05-11T04:52:13.595Z,21.3
2018-05-11T04:53:03.361Z,21.3
2018-05-11T04:53:53.450Z,21.3
2018-05-11T04:54:43.741Z,21.3
2018-05-11T04:55:33.301Z,21.3
2018-05-11T04:56:23.647Z,21.3
2018-05-11T04:57:13.396Z,21.3
2018-05-11T04:58:03.772Z,21.3
2018-05-11T04:58:53.803Z,21.3
2018-05-11T04:59:43.383Z,21.3
2018-05-11T05:00:33.946Z,21.3
2018-05-11T05:01:24.315Z,21.3
2018-05-11T05:02:13.809Z,21.3
2018-05-11T05:03:04.403Z,21.3
2018-05-11T05:03:54.009Z,21.3
2018-05-11T05:04:44.284Z,21.3
2018-05-11T05:05:34.852Z,21.3
2018-05-11T05:06:24.359Z,21.3
2018-05-11T05:07:14.549Z,21.3
2018-05-11T05:08:03.943Z,21.3
2018-05-11T05:08:54.584Z,21.3
2018-05-11T05:09:44.932Z,21.3
2018-05-11T05:10:34.771Z,21.3
2018-05-11T05:11:25.022Z,21.3
2018-05-11T05:12:14.655Z,21.3
2018-05-11T05:13:04.172Z,21.3
2018-05-11T05:13:54.476Z,21.3
2018-05-11T05:14:43.297Z,21.3
2018-05-11T05:15:33.449Z,21.3
2018-05-11T05:16:22.928Z,21.3
2018-05-11T05:17:14.153Z,21.3
2018-05-11T05:18:03.697Z,21.3
2018-05-11T05:18:54.874Z,21.3
2018-05-11T05:19:44.179Z,21.3
2018-05-11T05:20:34.507Z,21.3
2018-05-11T05:21:24.756Z,21.3
2018-05-11T05:22:15.814Z,21.3
2018-05-11T05:23:05.750Z,21.3
2018-05-11T05:23:55.723Z,21.3
2018-05-11T05:24:45.786Z,21.3
2018-05-11T05:25:35.595Z,21.3
2018-05-11T05:26:26.200Z,21.3
2018-05-11T05:27:15.653Z,21.3
2018-05-11T05:28:06.035Z,21.3
2018-05-11T05:28:56.083Z,21.3
2018-05-11T05:29:45.392Z,21.3
2018-05-11T05:30:35.703Z,21.3
2018-05-11T05:31:25.764Z,21.3
2018-05-11T05:32:16.117Z,21.3
2018-05-11T05:33:06.405Z,21.3
2018-05-11T05:33:56.443Z,21.3
2018-05-11T05:34:46.540Z,21.3
2018-05-11T05:35:36.100Z,21.3
2018-05-11T05:36:25.308Z,21.3
2018-05-11T05:37:16.256Z,21.3
2018-05-11T05:38:05.721Z,21.3
2018-05-11T05:38:56.046Z,21.3
2018-05-11T05:39:46.224Z,21.3
2018-05-11T05:40:36.967Z,21.3
2018-05-11T05:41:26.837Z,21.2
2018-05-11T05:42:17.327Z,21.3
2018-05-11T05:43:07.151Z,21.3
2018-05-11T05:43:56.217Z,21.3
2018-05-11T05:44:47.109Z,21.3
2018-05-11T05:45:37.603Z,21.3
2018-05-11T05:46:27.394Z,21.3
2018-05-11T05:47:16.691Z,21.3
2018-05-11T05:48:07.774Z,21.3
2018-05-11T05:48:57.832Z,21.3
2018-05-11T05:49:46.847Z,21.3
2018-05-11T05:50:38.000Z,21.3
2018-05-11T05:51:26.444Z,21.3
2018-05-11T05:52:18.140Z,21.3
2018-05-11T05:53:07.368Z,21.3
2018-05-11T05:53:58.223Z,21.3
2018-05-11T05:54:48.273Z,21.3
2018-05-11T05:55:37.773Z,21.2
2018-05-11T05:56:27.883Z,21.3
2018-05-11T05:57:16.790Z,21.3
2018-05-11T05:58:07.982Z,21.2
2018-05-11T05:58:58.315Z,21.3
2018-05-11T05:59:48.165Z,21.3
2018-05-11T06:00:38.192Z,21.3
2018-05-11T06:01:28.530Z,21.3
2018-05-11T06:02:18.627Z,21.2
2018-05-11T06:03:08.365Z,21.3
2018-05-11T06:03:58.720Z,21.3
2018-05-11T06:04:49.755Z,21.3
2018-05-11T06:05:38.070Z,21.3
2018-05-11T06:06:28.130Z,21.3
2018-05-11T06:07:18.227Z,21.3
2018-05-11T06:08:09.239Z,21.3
2018-05-11T06:08:59.102Z,21.3
2018-05-11T06:09:49.148Z,21.3
2018-05-11T06:10:38.452Z,21.3
2018-05-11T06:11:29.657Z,21.3
2018-05-11T06:12:19.339Z,21.2
2018-05-11T06:13:08.699Z,21.3
2018-05-11T06:13:58.817Z,21.3
2018-05-11T06:14:49.361Z,21.2
2018-05-11T06:15:39.243Z,21.3
2018-05-11T06:16:29.516Z,21.3
2018-05-11T06:17:19.347Z,21.3
2018-05-11T06:18:08.446Z,21.3
2018-05-11T06:18:59.154Z,21.3
2018-05-11T06:19:49.685Z,21.3
2018-05-11T06:20:39.671Z,21.3
2018-05-11T06:21:30.280Z,21.3
2018-05-11T06:22:20.100Z,21.3
2018-05-11T06:23:10.193Z,21.2
2018-05-11T06:24:00.024Z,21.3
2018-05-11T06:24:51.136Z,21.3
2018-05-11T06:25:40.076Z,21.3
2018-05-11T06:26:29.648Z,21.3
2018-05-11T06:27:20.214Z,21.3
2018-05-11T06:28:10.254Z,21.2
2018-05-11T06:29:00.618Z,21.3
2018-05-11T06:29:49.537Z,21.3
2018-05-11T06:30:40.744Z,21.2
2018-05-11T06:31:29.941Z,21.2
2018-05-11T06:32:20.602Z,21.3
2018-05-11T06:33:10.660Z,21.3
2018-05-11T06:34:00.976Z,21.3
2018-05-11T06:34:51.372Z,21.3
2018-05-11T06:35:40.597Z,21.3
2018-05-11T06:36:31.169Z,21.3
2018-05-11T06:37:21.261Z,21.3
2018-05-11T06:38:10.766Z,21.3
2018-05-11T06:39:01.367Z,21.3
2018-05-11T06:39:50.630Z,21.3
2018-05-11T06:40:42.242Z,21.2
2018-05-11T06:41:31.816Z,21.2
2018-05-11T06:42:21.856Z,21.2
2018-05-11T06:43:11.637Z,21.2
2018-05-11T06:44:01.701Z,21.3
2018-05-11T06:44:51.296Z,21.3
2018-05-11T06:45:41.836Z,21.3
2018-05-11T06:46:31.928Z,21.3
2018-05-11T06:47:22.275Z,21.2
2018-05-11T06:48:11.579Z,21.3
2018-05-11T06:49:02.108Z,21.2
2018-05-11T06:49:51.329Z,21.2
2018-05-11T06:50:42.001Z,21.3
2018-05-11T06:51:32.671Z,21.2
2018-05-11T06:52:22.367Z,21.3
2018-05-11T06:53:12.696Z,21.3
2018-05-11T06:54:02.793Z,21.2
2018-05-11T06:54:51.949Z,21.3
2018-05-11T06:55:42.686Z,21.3
2018-05-11T06:56:32.645Z,21.2
2018-05-11T06:57:22.168Z,21.2
2018-05-11T06:58:13.054Z,21.3
2018-05-11T06:59:02.298Z,21.2
2018-05-11T06:59:53.231Z,21.2
2018-05-11T07:00:42.702Z,21.2
2018-05-11T07:01:34.030Z,21.2
2018-05-11T07:02:23.137Z,21.3
2018-05-11T07:03:13.008Z,21.2
2018-05-11T07:04:01.962Z,21.2
2018-05-11T07:04:53.119Z,21.2
2018-05-11T07:05:42.306Z,21.2
2018-05-11T07:06:33.141Z,21.2
2018-05-11T07:07:25.001Z,21.2
2018-05-11T07:08:13.094Z,21.2
2018-05-11T07:09:03.315Z,21.2
2018-05-11T07:15:44.421Z,21.1
2018-05-11T07:16:33.465Z,21.1
2018-05-11T07:17:24.516Z,21.1
2018-05-11T07:18:14.328Z,21.1
2018-05-11T07:19:04.646Z,21.1
2018-05-11T07:19:54.746Z,21.1
2018-05-11T07:20:44.506Z,21.1
2018-05-11T07:21:34.833Z,21.1
2018-05-11T07:22:24.909Z,21
2018-05-11T07:23:14.718Z,21.1
2018-05-11T07:24:04.181Z,21
2018-05-11T07:24:55.136Z,21
2018-05-11T07:25:46.425Z,21
2018-05-11T07:26:35.033Z,21
2018-05-11T07:27:24.710Z,21
2018-05-11T07:28:15.368Z,21
2018-05-11T07:29:05.431Z,21
2018-05-11T07:29:54.443Z,21
2018-05-11T07:30:44.714Z,21
2018-05-11T07:31:34.552Z,21
2018-05-11T07:32:24.841Z,21
2018-05-11T07:33:14.634Z,21
2018-05-11T07:34:05.574Z,21
2018-05-11T07:34:55.614Z,21
2018-05-11T07:35:44.474Z,21
2018-05-11T07:36:34.683Z,21
2018-05-11T07:37:24.440Z,21
2018-05-11T07:38:15.627Z,21
2018-05-11T07:39:05.317Z,21
2018-05-11T07:39:55.392Z,21
2018-05-11T07:40:44.067Z,21
2018-05-11T07:41:35.747Z,21
2018-05-11T07:42:25.117Z,21
2018-05-11T07:43:16.921Z,21
2018-05-11T07:44:06.047Z,21
2018-05-11T07:44:55.436Z,21
2018-05-11T07:45:45.593Z,21
2018-05-11T07:46:36.200Z,21
2018-05-11T07:47:26.089Z,21
2018-05-11T07:48:16.291Z,21
2018-05-11T07:49:06.653Z,21
2018-05-11T07:49:56.776Z,21
2018-05-11T07:50:47.066Z,21
2018-05-11T07:51:37.949Z,21
2018-05-11T07:52:27.029Z,21
2018-05-11T07:53:16.421Z,21
2018-05-11T07:54:07.325Z,21
2018-05-11T07:54:57.446Z,21.1
2018-05-11T07:55:46.890Z,21.1
2018-05-11T07:56:36.772Z,21
2018-05-11T07:57:27.585Z,21
2018-05-11T07:58:16.785Z,21
2018-05-11T07:59:07.477Z,21
2018-05-11T07:59:57.213Z,21
2018-05-11T08:00:47.916Z,21
2018-05-11T08:01:36.770Z,21
2018-05-11T08:02:27.683Z,21
2018-05-11T08:03:17.723Z,21.1
2018-05-11T08:04:07.983Z,21.1
2018-05-11T08:04:58.166Z,21.1
2018-05-11T08:05:48.169Z,21
2018-05-11T08:06:36.951Z,21.1
2018-05-11T08:07:28.081Z,21.1
2018-05-11T08:08:17.927Z,21
2018-05-11T08:09:08.473Z,21.1
2018-05-11T08:09:57.972Z,21.1
2018-05-11T08:10:48.299Z,21.1
2018-05-11T08:11:37.819Z,21.1
2018-05-11T08:12:28.422Z,21.1
2018-05-11T08:13:18.248Z,21.1
2018-05-11T08:14:09.518Z,21.1
2018-05-11T08:14:58.381Z,21.1
2018-05-11T08:15:47.919Z,21.1
2018-05-11T08:16:38.214Z,21.1
2018-05-11T08:17:29.161Z,21.1
2018-05-11T08:18:17.449Z,21.1
2018-05-11T08:19:08.213Z,21.1
2018-05-11T08:20:48.920Z,21.1
2018-05-11T08:21:38.109Z,21.1
2018-05-11T08:22:28.967Z,21.1
2018-05-11T08:23:18.922Z,21.1
2018-05-11T08:24:08.572Z,21.1
2018-05-11T08:24:58.654Z,21.1
2018-05-11T08:25:48.245Z,21.1
2018-05-11T08:26:38.912Z,21.1
2018-05-11T08:27:27.977Z,21.1
2018-05-11T08:28:17.957Z,21.1
2018-05-11T08:30:48.801Z,21.1
2018-05-11T08:35:50.376Z,21.1
2018-05-11T08:40:49.545Z,21.1
2018-05-11T08:41:40.941Z,21.1
2018-05-11T08:42:30.761Z,21.1
2018-05-11T08:43:20.256Z,21.1
2018-05-11T08:44:10.842Z,21.1
2018-05-11T08:45:01.241Z,21.1
2018-05-11T08:45:51.098Z,21.1
2018-05-11T08:46:41.036Z,21.1
2018-05-11T08:47:30.566Z,21.1
2018-05-11T08:48:21.230Z,21.1
2018-05-11T08:49:11.253Z,21.1
2018-05-11T08:50:01.551Z,21.1
2018-05-11T08:50:50.545Z,21.1
2018-05-11T08:51:41.693Z,21.1
2018-05-11T08:52:31.207Z,21
2018-05-11T08:53:20.998Z,21.1
2018-05-11T08:54:10.808Z,21.1
2018-05-11T08:55:01.690Z,21.1
2018-05-11T08:55:52.734Z,21.1
2018-05-11T08:56:41.249Z,21.1
2018-05-11T08:57:32.175Z,21.1
2018-05-11T08:58:21.664Z,21
2018-05-11T08:59:12.267Z,21.1
2018-05-11T09:00:02.084Z,21.1
2018-05-11T09:00:52.117Z,21.1
2018-05-11T09:01:42.178Z,21.1
2018-05-11T09:02:31.996Z,21.1
2018-05-11T09:03:22.716Z,21.1
2018-05-11T09:04:12.694Z,21.1
2018-05-11T09:05:01.943Z,21.1
2018-05-11T09:05:52.020Z,21.1
2018-05-11T09:06:42.625Z,21.1
2018-05-11T09:07:32.635Z,21.1
2018-05-11T09:08:23.222Z,21.1
2018-05-11T09:09:12.474Z,21.1
2018-05-11T09:10:02.819Z,21.1
2018-05-11T09:10:52.333Z,21.1
2018-05-11T09:11:42.922Z,21.1
2018-05-11T09:12:32.353Z,21.1
2018-05-11T09:13:22.793Z,21.1
2018-05-11T09:14:12.841Z,21
2018-05-11T09:15:03.339Z,21.1
2018-05-11T09:15:51.823Z,21.1
2018-05-11T09:16:43.105Z,21
2018-05-11T09:17:32.845Z,21.1
2018-05-11T09:18:23.513Z,21.1
2018-05-11T09:19:13.289Z,21
2018-05-11T09:20:03.572Z,21.1
2018-05-11T09:20:54.036Z,21
2018-05-11T09:21:43.691Z,21.1
2018-05-11T09:22:33.752Z,21
2018-05-11T09:23:24.194Z,21.1
2018-05-11T09:24:13.891Z,21
2018-05-11T09:25:04.022Z,21.1
2018-05-11T09:25:53.762Z,21.1
2018-05-11T09:26:43.911Z,21.1
2018-05-11T09:27:33.895Z,21
2018-05-11T09:28:24.247Z,21
2018-05-11T09:29:13.733Z,21.1
2018-05-11T09:30:04.110Z,21.1
2018-05-11T09:30:54.412Z,21.1
2018-05-11T09:31:44.674Z,21.1
2018-05-11T09:32:34.532Z,21.1
2018-05-11T09:33:24.338Z,21.1
2018-05-11T09:34:14.763Z,21.1
2018-05-11T09:35:04.459Z,21.1
2018-05-11T09:35:55.075Z,21.1
2018-05-11T09:36:45.094Z,21.1
2018-05-11T09:37:34.644Z,21.1
2018-05-11T09:38:25.223Z,21.1
2018-05-11T09:39:15.425Z,21.1
2018-05-11T09:40:05.357Z,21.1
2018-05-11T09:40:54.914Z,21.1
2018-05-11T09:41:45.505Z,21.1
2018-05-11T09:42:35.531Z,21.1
2018-05-11T09:43:24.794Z,21.1
2018-05-11T09:44:15.111Z,21.1
2018-05-11T09:45:05.185Z,21.1
2018-05-11T09:45:55.315Z,21.1
2018-05-11T09:46:45.615Z,21.1
2018-05-11T09:47:35.643Z,21.1
2018-05-11T09:48:25.455Z,21.1
2018-05-11T09:49:15.527Z,21.1
2018-05-11T09:50:05.599Z,21.1
2018-05-11T09:50:55.943Z,21.1
2018-05-11T09:51:45.749Z,21.1
2018-05-11T09:52:35.471Z,21.1
2018-05-11T09:53:25.827Z,21.1
2018-05-11T09:54:15.908Z,21.1
2018-05-11T09:55:07.320Z,21.1
2018-05-11T09:55:56.356Z,21.1
2018-05-11T09:56:46.128Z,21.1
2018-05-11T09:57:36.714Z,21.1
2018-05-11T09:58:26.760Z,21.1
2018-05-11T09:59:15.557Z,21.1
2018-05-11T10:00:06.093Z,21.1
2018-05-11T10:00:58.642Z,21.1
2018-05-11T10:01:46.364Z,21.1
2018-05-11T10:02:36.587Z,21.1
2018-05-11T10:03:26.906Z,21.1
2018-05-11T10:04:15.911Z,21.1
2018-05-11T10:05:05.969Z,21.1
2018-05-11T10:06:47.173Z,21.1
2018-05-11T10:08:27.285Z,21.1
2018-05-11T10:09:16.825Z,21.1
2018-05-11T10:10:07.449Z,21.1
2018-05-11T10:10:57.221Z,21.1
2018-05-11T10:35:59.232Z,21.2
2018-05-11T10:37:39.533Z,21.2
2018-05-11T10:39:19.372Z,21.2
2018-05-11T10:40:09.478Z,21.2
2018-05-11T10:41:49.623Z,21.2
2018-05-11T10:45:59.886Z,21.2
2018-05-11T10:48:31.345Z,21.2
2018-05-11T10:50:10.185Z,21.2
2018-05-11T10:51:00.808Z,21.2
2018-05-11T10:51:50.381Z,21.2
2018-05-11T10:52:40.946Z,21.2
2018-05-11T10:55:10.073Z,21.2
2018-05-11T10:55:59.889Z,21.2
2018-05-11T10:56:50.506Z,21.2
2018-05-11T10:58:30.081Z,21.2
2018-05-11T10:59:19.869Z,21.2
2018-05-11T11:00:11.483Z,21.2
2018-05-11T11:01:51.175Z,21.2
2018-05-11T11:02:41.844Z,21.2
2018-05-11T11:09:21.725Z,21.2
2018-05-11T11:13:32.869Z,21.2
2018-05-11T11:14:22.587Z,21.2
2018-05-11T11:15:11.649Z,21.2
2018-05-11T11:16:01.411Z,21.2
2018-05-11T11:17:42.313Z,21.2
2018-05-11T11:18:31.905Z,21.2
2018-05-11T11:20:12.539Z,21.2
2018-05-11T11:21:01.840Z,21.2
2018-05-11T11:21:52.085Z,21.2
2018-05-11T11:22:41.603Z,21.2
2018-05-11T11:23:32.021Z,21.2
2018-05-11T11:24:22.866Z,21.2
2018-05-11T11:25:12.417Z,21.2
2018-05-11T11:26:02.823Z,21.2
2018-05-11T11:26:52.772Z,21.2
2018-05-11T11:27:42.826Z,21.2
2018-05-11T11:28:32.890Z,21.2
2018-05-11T11:29:23.748Z,21.2
2018-05-11T11:30:12.739Z,21.2
2018-05-11T11:31:03.320Z,21.2
2018-05-11T11:31:53.101Z,21.2
2018-05-11T11:32:43.196Z,21.2
2018-05-11T11:33:33.520Z,21.2
2018-05-11T11:34:24.628Z,21.2
2018-05-11T11:35:14.186Z,21.2
2018-05-11T11:36:03.464Z,21.2
2018-05-11T11:36:54.001Z,21.2
2018-05-11T11:37:43.463Z,21.2
2018-05-11T11:38:32.975Z,21.2
2018-05-11T11:39:23.477Z,21.2
2018-05-11T11:40:13.590Z,21.2
2018-05-11T11:41:04.229Z,21.2
2018-05-11T11:41:54.848Z,21.2
2018-05-11T11:42:43.167Z,21.2
2018-05-11T11:43:33.774Z,21.2
2018-05-11T11:44:24.312Z,21.2
2018-05-11T11:45:13.986Z,21.2
2018-05-11T11:46:04.283Z,21.2
2018-05-11T11:46:53.864Z,21.2
2018-05-11T11:47:44.440Z,21.2
2018-05-11T11:48:34.042Z,21.2
2018-05-11T11:49:24.837Z,21.2
2018-05-11T11:50:14.557Z,21.2
2018-05-11T11:51:04.354Z,21.2
2018-05-11T11:51:54.720Z,21.2
2018-05-11T11:52:44.027Z,21.2
2018-05-11T11:53:35.645Z,21.2
2018-05-11T11:54:24.575Z,21.3
2018-05-11T11:55:15.152Z,21.2
2018-05-11T11:56:05.059Z,21.3
2018-05-11T11:56:55.825Z,21.3
2018-05-11T11:57:44.835Z,21.3
2018-05-11T11:58:35.404Z,21.2
2018-05-11T11:59:25.483Z,21.3
2018-05-11T12:00:16.103Z,21.3
2018-05-11T12:01:05.415Z,21.3
2018-05-11T12:01:55.884Z,21.2
2018-05-11T12:02:45.533Z,21.2
2018-05-11T12:03:36.109Z,21.3
2018-05-11T12:04:26.039Z,21.2
2018-05-11T12:05:16.061Z,21.3
2018-05-11T12:06:05.526Z,21.3
2018-05-11T12:06:55.581Z,21.2
2018-05-11T12:07:45.396Z,21.2
2018-05-11T12:08:34.459Z,21.2
2018-05-11T12:09:25.583Z,21.2
2018-05-11T12:10:16.417Z,21.2
2018-05-11T12:11:06.677Z,21.2
2018-05-11T12:11:56.601Z,21.2
2018-05-11T12:12:46.272Z,21.2
2018-05-11T12:13:35.816Z,21.2
2018-05-11T12:14:26.146Z,21.3
2018-05-11T12:15:15.532Z,21.3